createdAt,value
2023-01-20T00:01:11.968Z,12.90
2023-01-20T00:03:39.928Z,13.00
2023-01-20T00:06:08.704Z,11.30
2023-01-20T00:08:36.665Z,11.27
2023-01-20T00:11:05.740Z,11.63
2023-01-20T00:13:33.599Z,11.53
2023-01-20T00:16:03.125Z,11.63
2023-01-20T00:18:33.388Z,11.47
2023-01-20T00:21:03.497Z,12.77
2023-01-20T00:23:31.235Z,11.73
2023-01-20T00:25:58.852Z,11.30
2023-01-20T00:28:27.097Z,11.53
2023-01-20T00:30:54.839Z,10.98
2023-01-20T00:33:22.512Z,11.57
2023-01-20T00:35:51.433Z,10.90
2023-01-20T00:40:54.639Z,10.40
2023-01-20T00:43:22.286Z,11.23
2023-01-20T00:45:50.041Z,11.47
2023-01-20T00:48:17.739Z,11.13
2023-01-20T00:50:45.459Z,12.83
2023-01-20T00:53:14.468Z,12.07
2023-01-20T00:55:42.205Z,12.93
2023-01-20T00:58:10.071Z,12.17
2023-01-20T01:00:37.996Z,12.90
2023-01-20T01:03:06.489Z,12.32
2023-01-20T01:05:34.749Z,13.88
2023-01-20T01:08:02.343Z,14.98
2023-01-20T01:10:31.310Z,15.03
2023-01-20T01:15:27.486Z,12.45
2023-01-20T01:17:56.060Z,13.63
2023-01-20T01:20:23.784Z,14.82
2023-01-20T01:22:51.517Z,18.77
2023-01-20T01:25:20.384Z,17.83
2023-01-20T01:27:49.434Z,18.47
2023-01-20T01:30:17.463Z,17.73
2023-01-20T01:32:45.169Z,18.17
2023-01-20T01:35:13.276Z,19.97
2023-01-20T01:37:41.252Z,20.25
2023-01-20T01:40:10.384Z,21.07
2023-01-20T01:42:38.144Z,23.77
2023-01-20T01:45:37.292Z,22.73
2023-01-20T01:48:09.032Z,22.90
2023-01-20T01:50:42.997Z,26.00
2023-01-20T01:53:11.105Z,26.00
2023-01-20T01:55:43.153Z,26.17
2023-01-20T01:58:15.065Z,25.27
2023-01-20T02:00:44.857Z,26.13
2023-01-20T02:03:13.319Z,26.43
2023-01-20T02:05:42.333Z,29.10
2023-01-20T02:08:10.378Z,27.90
2023-01-20T02:10:37.978Z,26.55
2023-01-20T02:13:06.323Z,29.23
2023-01-20T02:15:41.308Z,30.10
2023-01-20T02:18:34.456Z,30.80
2023-01-20T02:21:30.119Z,31.27
2023-01-20T02:24:19.809Z,31.77
2023-01-20T02:26:58.266Z,29.47
2023-01-20T02:30:07.765Z,32.75
2023-01-20T02:32:47.983Z,31.73
2023-01-20T02:35:25.494Z,30.73
2023-01-20T02:38:05.154Z,31.30
2023-01-20T02:40:40.141Z,29.57
2023-01-20T02:43:14.129Z,29.97
2023-01-20T02:45:49.198Z,28.80
2023-01-20T02:48:25.588Z,30.00
2023-01-20T02:51:00.024Z,27.77
2023-01-20T02:53:35.453Z,29.37
2023-01-20T02:56:03.490Z,30.33
2023-01-20T02:58:37.993Z,29.15
2023-01-20T03:01:12.659Z,28.17
2023-01-20T03:03:45.615Z,28.53
2023-01-20T03:06:17.706Z,27.93
2023-01-20T03:08:47.805Z,27.50
2023-01-20T03:11:16.158Z,28.87
2023-01-20T03:13:48.141Z,29.17
2023-01-20T03:16:18.320Z,28.60
2023-01-20T03:18:47.644Z,27.90
2023-01-20T03:21:15.402Z,26.03
2023-01-20T03:23:46.393Z,28.07
2023-01-20T03:26:16.376Z,30.00
2023-01-20T03:28:45.302Z,27.50
2023-01-20T03:33:45.154Z,28.87
2023-01-20T03:36:16.381Z,31.67
2023-01-20T03:38:44.837Z,31.80
2023-01-20T03:41:25.593Z,28.67
2023-01-20T03:43:58.638Z,29.63
2023-01-20T03:46:31.838Z,31.17
2023-01-20T03:49:07.886Z,28.93
2023-01-20T03:51:44.963Z,31.33
2023-01-20T03:54:15.399Z,31.07
2023-01-20T03:56:50.408Z,32.63
2023-01-20T03:59:22.252Z,33.63
2023-01-20T04:01:50.405Z,33.53
2023-01-20T04:04:20.125Z,31.88
2023-01-20T04:06:51.779Z,31.97
2023-01-20T04:09:24.947Z,30.67
2023-01-20T04:11:52.764Z,32.77
2023-01-20T04:14:20.485Z,32.47
2023-01-20T04:16:53.896Z,31.37
2023-01-20T04:19:21.745Z,30.87
2023-01-20T04:21:54.996Z,31.13
2023-01-20T04:24:30.099Z,32.80
2023-01-20T04:26:57.684Z,32.90
2023-01-20T04:29:25.331Z,33.50
2023-01-20T04:31:59.584Z,33.97
2023-01-20T04:34:27.501Z,33.27
2023-01-20T04:36:56.590Z,36.73
2023-01-20T04:39:24.232Z,40.63
2023-01-20T04:41:51.922Z,34.07
2023-01-20T04:44:19.513Z,35.30
2023-01-20T04:46:47.430Z,34.37
2023-01-20T04:49:15.478Z,36.13
2023-01-20T04:51:43.428Z,35.50
2023-01-20T04:54:13.274Z,39.67
2023-01-20T04:56:40.914Z,37.90
2023-01-20T04:59:08.510Z,40.30
2023-01-20T05:01:36.203Z,37.77
2023-01-20T05:04:04.035Z,34.50
2023-01-20T05:06:31.683Z,36.47
2023-01-20T05:08:59.331Z,38.07
2023-01-20T05:11:28.394Z,36.30
2023-01-20T05:13:56.032Z,37.43
2023-01-20T05:16:25.940Z,38.73
2023-01-20T05:18:53.680Z,37.03
2023-01-20T05:21:21.335Z,40.00
2023-01-20T05:23:49.001Z,38.80
2023-01-20T05:26:16.876Z,36.17
2023-01-20T05:28:46.174Z,37.07
2023-01-20T05:31:13.818Z,37.90
2023-01-20T05:33:41.642Z,37.10
2023-01-20T05:36:10.913Z,36.77
2023-01-20T05:38:39.359Z,37.23
2023-01-20T05:41:08.890Z,38.55
2023-01-20T05:43:37.447Z,36.93
2023-01-20T05:46:06.810Z,39.33
2023-01-20T05:48:34.593Z,36.57
2023-01-20T05:51:02.316Z,39.70
2023-01-20T05:53:29.959Z,38.20
2023-01-20T05:56:01.779Z,43.67
2023-01-20T05:58:30.405Z,41.00
2023-01-20T06:01:06.778Z,41.70
2023-01-20T06:03:34.698Z,38.87
2023-01-20T06:06:02.766Z,36.25
2023-01-20T06:08:30.520Z,39.03
2023-01-20T06:10:58.206Z,37.03
2023-01-20T06:13:25.915Z,38.97
2023-01-20T06:15:54.240Z,38.07
2023-01-20T06:18:24.382Z,36.92
2023-01-20T06:20:52.277Z,34.13
2023-01-20T06:23:20.209Z,37.57
2023-01-20T06:25:47.900Z,38.47
2023-01-20T06:28:15.572Z,38.57
2023-01-20T06:30:43.932Z,36.97
2023-01-20T06:33:11.633Z,36.45
2023-01-20T06:35:40.582Z,36.67
2023-01-20T06:40:35.732Z,36.03
2023-01-20T06:43:03.910Z,42.80
2023-01-20T06:45:31.531Z,36.45
2023-01-20T06:47:59.357Z,36.93
2023-01-20T06:50:26.985Z,41.73
2023-01-20T06:52:56.823Z,40.57
2023-01-20T06:55:24.493Z,43.90
2023-01-20T06:57:52.072Z,40.33
2023-01-20T07:00:20.587Z,39.13
2023-01-20T07:02:49.530Z,38.40
2023-01-20T07:07:45.845Z,36.65
2023-01-20T07:10:14.862Z,43.90
2023-01-20T07:12:42.451Z,47.43
2023-01-20T07:15:10.659Z,40.87
2023-01-20T07:17:38.318Z,42.85
2023-01-20T07:20:06.569Z,44.60
2023-01-20T07:22:34.224Z,44.25
2023-01-20T07:25:01.780Z,41.67
2023-01-20T07:27:30.824Z,42.07
2023-01-20T07:29:58.694Z,41.07
2023-01-20T07:32:26.429Z,41.80
2023-01-20T07:34:54.157Z,41.97
2023-01-20T07:37:21.744Z,40.53
2023-01-20T07:39:49.383Z,39.90
2023-01-20T07:42:17.071Z,40.37
2023-01-20T07:44:46.064Z,38.77
2023-01-20T07:47:13.822Z,40.27
2023-01-20T07:49:41.462Z,39.67
2023-01-20T07:52:09.190Z,38.07
2023-01-20T07:54:36.808Z,39.77
2023-01-20T07:57:04.493Z,41.63
2023-01-20T07:59:32.136Z,39.67
2023-01-20T08:02:01.184Z,40.57
2023-01-20T08:04:28.898Z,39.40
2023-01-20T08:06:56.565Z,35.73
2023-01-20T08:09:24.322Z,38.13
2023-01-20T08:11:51.940Z,36.60
2023-01-20T08:14:19.609Z,36.80
2023-01-20T08:16:47.284Z,38.27
2023-01-20T08:19:16.414Z,37.37
2023-01-20T08:21:44.065Z,37.40
2023-01-20T08:24:12.076Z,36.10
2023-01-20T08:26:39.711Z,35.58
2023-01-20T08:29:09.605Z,39.63
2023-01-20T08:31:38.094Z,43.13
2023-01-20T08:34:06.385Z,36.65
2023-01-20T08:36:38.006Z,37.97
2023-01-20T08:39:07.958Z,39.30
2023-01-20T08:41:37.588Z,36.37
2023-01-20T08:44:07.895Z,38.63
2023-01-20T08:46:39.237Z,39.63
2023-01-20T08:49:10.304Z,40.17
2023-01-20T08:51:39.901Z,41.77
2023-01-20T08:54:07.670Z,37.27
2023-01-20T08:56:36.732Z,36.67
2023-01-20T08:59:06.601Z,35.90
2023-01-20T09:01:37.831Z,36.80
2023-01-20T09:04:07.691Z,35.17
2023-01-20T09:06:41.761Z,35.70
2023-01-20T09:09:09.582Z,37.93
2023-01-20T09:11:37.815Z,36.70
2023-01-20T09:14:05.683Z,38.03
2023-01-20T09:16:33.470Z,37.37
2023-01-20T09:19:01.211Z,34.13
2023-01-20T09:21:28.934Z,36.97
2023-01-20T09:23:58.017Z,35.30
2023-01-20T09:26:40.652Z,34.13
2023-01-20T09:29:11.550Z,33.47
2023-01-20T09:31:40.288Z,34.67
2023-01-20T09:34:08.072Z,33.58
2023-01-20T09:36:35.733Z,33.93
2023-01-20T09:39:22.663Z,31.70
2023-01-20T09:42:08.244Z,30.60
2023-01-20T09:44:50.988Z,31.87
2023-01-20T09:47:31.310Z,32.87
2023-01-20T09:50:57.303Z,32.00
2023-01-20T09:53:40.651Z,32.13
2023-01-20T09:56:16.445Z,30.13
2023-01-20T09:58:52.809Z,29.27
2023-01-20T10:01:30.838Z,31.07
2023-01-20T10:04:07.409Z,28.85
2023-01-20T10:06:40.680Z,32.47
2023-01-20T10:09:17.252Z,30.63
2023-01-20T10:11:49.517Z,28.63
2023-01-20T10:14:24.344Z,28.00
2023-01-20T10:16:58.394Z,28.07
2023-01-20T10:19:31.185Z,26.43
2023-01-20T10:22:08.328Z,24.47
2023-01-20T10:24:40.776Z,23.67
2023-01-20T10:27:10.048Z,22.90
2023-01-20T10:29:39.950Z,22.07
2023-01-20T10:32:15.170Z,22.57
2023-01-20T10:34:47.403Z,20.57
2023-01-20T10:37:16.232Z,22.50
2023-01-20T10:39:49.111Z,20.88
2023-01-20T10:42:19.947Z,20.77
2023-01-20T10:44:50.547Z,19.23
2023-01-20T10:47:25.300Z,20.83
2023-01-20T10:50:32.332Z,20.17
2023-01-20T10:53:12.324Z,18.83
2023-01-20T10:55:56.019Z,19.37
2023-01-20T10:58:29.075Z,19.27
2023-01-20T11:00:58.906Z,18.50
2023-01-20T11:03:26.906Z,17.93
2023-01-20T11:05:54.856Z,19.45
2023-01-20T11:08:27.106Z,19.27
2023-01-20T11:10:57.497Z,16.73
2023-01-20T11:13:26.710Z,17.70
2023-01-20T11:15:57.586Z,17.20
2023-01-20T11:18:28.827Z,16.20
2023-01-20T11:21:00.647Z,17.53
2023-01-20T11:23:36.835Z,16.13
2023-01-20T11:26:09.949Z,14.43
2023-01-20T11:28:53.045Z,14.57
2023-01-20T11:31:22.329Z,13.57
2023-01-20T11:33:57.771Z,14.53
2023-01-20T11:36:26.870Z,13.57
2023-01-20T11:38:56.168Z,15.23
2023-01-20T11:41:25.333Z,15.10
2023-01-20T11:43:56.675Z,15.80
2023-01-20T11:46:30.782Z,14.00
2023-01-20T11:49:17.410Z,12.67
2023-01-20T11:51:50.969Z,13.30
2023-01-20T11:54:21.497Z,14.13
2023-01-20T11:56:53.464Z,14.53
2023-01-20T11:59:28.716Z,14.43
2023-01-20T12:02:01.401Z,13.33
2023-01-20T12:04:42.293Z,13.80
2023-01-20T12:07:13.388Z,13.60
2023-01-20T12:09:44.804Z,13.80
2023-01-20T12:12:21.842Z,14.00
2023-01-20T12:14:58.681Z,14.63
2023-01-20T12:17:40.753Z,14.50
2023-01-20T12:20:16.275Z,13.63
2023-01-20T12:22:55.517Z,14.30
2023-01-20T12:25:26.999Z,14.03
2023-01-20T12:27:58.746Z,13.70
2023-01-20T12:30:41.507Z,13.70
2023-01-20T12:33:24.501Z,15.13
2023-01-20T12:36:21.952Z,13.07
2023-01-20T12:39:09.296Z,12.97
2023-01-20T12:42:01.811Z,14.90
2023-01-20T12:44:37.089Z,15.20
2023-01-20T12:47:17.293Z,14.43
2023-01-20T12:49:59.302Z,16.07
2023-01-20T12:52:43.060Z,15.13
2023-01-20T12:55:22.003Z,14.60
2023-01-20T12:57:59.859Z,15.47
2023-01-20T13:00:41.200Z,16.73
2023-01-20T13:03:25.916Z,17.90
2023-01-20T13:06:15.910Z,16.80
2023-01-20T13:08:49.337Z,16.13
2023-01-20T13:11:27.003Z,17.93
2023-01-20T13:14:09.273Z,17.80
2023-01-20T13:16:45.799Z,22.27
2023-01-20T13:19:18.808Z,20.70
2023-01-20T13:21:54.044Z,22.63
2023-01-20T13:24:31.164Z,21.17
2023-01-20T13:27:00.350Z,23.65
2023-01-20T13:29:43.033Z,19.70
2023-01-20T13:32:31.663Z,21.07
2023-01-20T13:35:01.917Z,20.10
2023-01-20T13:37:33.118Z,23.00
2023-01-20T13:40:01.209Z,25.13
2023-01-20T13:42:51.296Z,23.23
2023-01-20T13:45:23.101Z,21.23
2023-01-20T13:48:00.498Z,21.00
2023-01-20T13:50:32.143Z,19.93
2023-01-20T13:53:21.070Z,20.40
2023-01-20T13:55:54.529Z,20.60
2023-01-20T13:58:25.134Z,22.33
2023-01-20T14:00:54.324Z,21.00
2023-01-20T14:03:24.688Z,20.00
2023-01-20T14:05:55.026Z,19.37
2023-01-20T14:08:24.232Z,21.20
2023-01-20T14:10:52.135Z,19.50
2023-01-20T14:13:22.468Z,20.37
2023-01-20T14:15:51.863Z,20.40
2023-01-20T14:18:22.037Z,20.47
2023-01-20T14:21:04.043Z,21.17
2023-01-20T14:23:38.503Z,20.03
2023-01-20T14:26:09.448Z,20.23
2023-01-20T14:28:44.272Z,21.27
2023-01-20T14:31:33.956Z,20.23
2023-01-20T14:34:04.991Z,20.53
2023-01-20T14:36:34.637Z,20.40
2023-01-20T14:39:04.353Z,21.50
2023-01-20T14:41:45.865Z,20.67
2023-01-20T14:44:18.924Z,20.27
2023-01-20T14:46:48.992Z,20.83
2023-01-20T14:49:18.029Z,20.93
2023-01-20T14:51:49.395Z,20.97
2023-01-20T14:54:38.458Z,21.60
2023-01-20T14:57:23.693Z,19.43
2023-01-20T15:00:03.580Z,19.87
2023-01-20T15:02:34.465Z,20.40
2023-01-20T15:05:02.494Z,19.43
2023-01-20T15:07:31.580Z,19.33
2023-01-20T15:10:03.974Z,20.53
2023-01-20T15:12:35.281Z,20.90
2023-01-20T15:15:15.543Z,19.37
2023-01-20T15:18:03.885Z,19.40
2023-01-20T15:20:33.380Z,18.83
2023-01-20T15:23:02.699Z,17.87
2023-01-20T15:25:30.527Z,18.33
2023-01-20T15:27:58.527Z,17.40
2023-01-20T15:30:27.828Z,18.40
2023-01-20T15:32:56.484Z,19.10
2023-01-20T15:35:26.867Z,18.83
2023-01-20T15:37:55.194Z,17.10
2023-01-20T15:40:26.775Z,18.83
2023-01-20T15:42:54.933Z,19.50
2023-01-20T15:45:22.580Z,21.15
2023-01-20T15:47:50.281Z,21.30
2023-01-20T15:50:22.076Z,20.70
2023-01-20T15:52:50.151Z,20.23
2023-01-20T15:55:20.009Z,22.52
2023-01-20T15:57:52.790Z,21.10
2023-01-20T16:00:23.641Z,19.43
2023-01-20T16:02:51.585Z,24.90
2023-01-20T16:05:21.220Z,28.90
2023-01-20T16:07:50.217Z,31.80
2023-01-20T16:10:19.271Z,34.33
2023-01-20T16:12:48.816Z,25.23
2023-01-20T16:15:18.531Z,22.90
2023-01-20T16:17:46.545Z,22.40
2023-01-20T16:20:22.757Z,22.60
2023-01-20T16:22:50.733Z,22.43
2023-01-20T16:25:18.764Z,21.55
2023-01-20T16:27:46.365Z,21.52
2023-01-20T16:30:17.236Z,19.33
2023-01-20T16:32:46.287Z,19.70
2023-01-20T16:35:14.892Z,20.23
2023-01-20T16:37:42.757Z,20.98
2023-01-20T16:40:14.190Z,21.63
2023-01-20T16:42:42.470Z,20.90
2023-01-20T16:45:22.156Z,20.80
2023-01-20T16:47:49.945Z,20.57
2023-01-20T16:50:18.250Z,20.70
2023-01-20T16:52:46.249Z,21.55
2023-01-20T16:55:14.022Z,20.75
2023-01-20T16:57:41.661Z,26.23
2023-01-20T17:00:10.380Z,26.90
2023-01-20T17:02:40.160Z,27.52
2023-01-20T17:05:08.818Z,24.60
2023-01-20T17:07:36.974Z,26.38
2023-01-20T17:10:05.720Z,24.08
2023-01-20T17:12:33.445Z,28.52
2023-01-20T17:15:01.271Z,25.50
2023-01-20T17:17:28.909Z,20.53
2023-01-20T17:19:57.887Z,21.87
2023-01-20T17:24:53.371Z,18.83
2023-01-20T17:27:21.114Z,16.92
2023-01-20T17:29:48.744Z,19.00
2023-01-20T17:32:18.026Z,18.47
2023-01-20T17:34:45.694Z,18.50
2023-01-20T17:37:14.837Z,17.30
2023-01-20T17:39:42.579Z,19.40
2023-01-20T17:42:10.519Z,18.20
2023-01-20T17:44:38.765Z,19.15
2023-01-20T17:47:06.708Z,19.98
2023-01-20T17:49:34.349Z,20.90
2023-01-20T17:52:02.259Z,21.57
2023-01-20T17:54:31.263Z,22.00
2023-01-20T17:56:59.041Z,22.17
2023-01-20T17:59:26.787Z,21.17
2023-01-20T18:01:55.339Z,21.57
2023-01-20T18:04:22.973Z,22.30
2023-01-20T18:06:50.824Z,22.87
2023-01-20T18:09:18.465Z,22.63
2023-01-20T18:11:47.617Z,23.87
2023-01-20T18:14:15.292Z,24.77
2023-01-20T18:16:43.240Z,25.63
2023-01-20T18:19:13.004Z,26.75
2023-01-20T18:21:42.944Z,24.77
2023-01-20T18:24:12.589Z,26.93
2023-01-20T18:26:42.503Z,26.40
2023-01-20T18:29:14.768Z,26.53
2023-01-20T18:31:43.631Z,27.37
2023-01-20T18:34:15.844Z,25.77
2023-01-20T18:36:46.094Z,28.27
2023-01-20T18:39:16.559Z,28.73
2023-01-20T18:41:45.166Z,28.43
2023-01-20T18:44:14.764Z,27.73
2023-01-20T18:46:43.359Z,28.33
2023-01-20T18:49:13.682Z,28.15
2023-01-20T18:51:42.867Z,27.30
2023-01-20T18:54:13.552Z,27.13
2023-01-20T18:56:41.777Z,26.80
2023-01-20T18:59:09.759Z,29.02
2023-01-20T19:01:40.909Z,27.30
2023-01-20T19:04:11.353Z,27.33
2023-01-20T19:06:41.532Z,25.43
2023-01-20T19:09:10.192Z,25.80
2023-01-20T19:11:40.531Z,26.05
2023-01-20T19:14:11.106Z,26.90
2023-01-20T19:16:45.273Z,26.43
2023-01-20T19:19:14.466Z,26.93
2023-01-20T19:21:42.761Z,27.23
2023-01-20T19:24:15.082Z,28.92
2023-01-20T19:26:43.181Z,26.70
2023-01-20T19:29:15.744Z,28.20
2023-01-20T19:31:44.913Z,28.47
2023-01-20T19:34:12.952Z,27.33
2023-01-20T19:36:42.995Z,28.35
2023-01-20T19:39:10.908Z,27.20
2023-01-20T19:41:39.524Z,26.97
2023-01-20T19:44:07.872Z,27.90
2023-01-20T19:46:38.680Z,27.88
2023-01-20T19:49:08.392Z,27.80
2023-01-20T19:51:36.537Z,26.80
2023-01-20T19:54:05.509Z,28.45
2023-01-20T19:59:02.855Z,24.90
2023-01-20T20:04:00.342Z,26.77
2023-01-20T20:06:31.288Z,28.23
2023-01-20T20:09:00.477Z,26.10
2023-01-20T20:11:28.571Z,27.70
2023-01-20T20:13:57.295Z,26.88
2023-01-20T20:16:26.271Z,29.10
2023-01-20T20:21:22.949Z,26.90
2023-01-20T20:23:52.703Z,27.35
2023-01-20T20:26:20.938Z,27.03
2023-01-20T20:28:48.690Z,28.20
2023-01-20T20:31:16.442Z,25.60
2023-01-20T20:33:46.101Z,27.20
2023-01-20T20:36:14.281Z,27.67
2023-01-20T20:38:41.948Z,26.38
2023-01-20T20:41:11.147Z,30.07
2023-01-20T20:43:40.258Z,27.53
2023-01-20T20:46:08.752Z,28.33
2023-01-20T20:48:37.652Z,27.45
2023-01-20T20:53:33.773Z,26.05
2023-01-20T20:56:04.129Z,28.10
2023-01-20T20:58:33.184Z,27.13
2023-01-20T21:01:02.592Z,28.33
2023-01-20T21:03:30.651Z,28.17
2023-01-20T21:05:58.348Z,27.52
2023-01-20T21:08:26.689Z,28.63
2023-01-20T21:10:54.584Z,28.02
2023-01-20T21:13:22.321Z,27.17
2023-01-20T21:15:59.419Z,26.57
2023-01-20T21:18:27.517Z,28.37
2023-01-20T21:20:57.098Z,29.88
2023-01-20T21:23:25.104Z,27.97
2023-01-20T21:25:53.017Z,27.88
2023-01-20T21:28:21.138Z,27.42
2023-01-20T21:30:48.864Z,28.60
2023-01-20T21:33:17.985Z,29.23
2023-01-20T21:35:46.587Z,26.50
2023-01-20T21:38:14.913Z,26.52
2023-01-20T21:40:59.659Z,29.63
2023-01-20T21:43:45.387Z,29.83
2023-01-20T21:46:13.055Z,29.33
2023-01-20T21:48:59.817Z,29.93
2023-01-20T21:51:45.191Z,27.80
2023-01-20T21:54:12.947Z,28.90
2023-01-20T21:56:40.819Z,28.33
2023-01-20T21:59:08.865Z,27.97
2023-01-20T22:01:37.263Z,27.50
2023-01-20T22:04:06.385Z,28.48
2023-01-20T22:06:34.155Z,28.03
2023-01-20T22:09:01.794Z,28.60
2023-01-20T22:11:29.771Z,28.63
2023-01-20T22:13:57.588Z,28.20
2023-01-20T22:16:26.800Z,28.65
2023-01-20T22:18:55.141Z,30.27
2023-01-20T22:21:25.452Z,27.90
2023-01-20T22:23:53.639Z,27.13
2023-01-20T22:26:21.451Z,27.10
2023-01-20T22:28:49.167Z,28.33
2023-01-20T22:31:20.042Z,27.17
2023-01-20T22:33:50.982Z,29.47
2023-01-20T22:36:18.730Z,28.70
2023-01-20T22:38:49.359Z,29.10
2023-01-20T22:41:17.581Z,27.10
2023-01-20T22:43:45.398Z,27.48
2023-01-20T22:46:14.507Z,30.23
2023-01-20T22:48:42.963Z,31.50
2023-01-20T22:51:12.740Z,29.27
2023-01-20T22:53:41.104Z,28.10
2023-01-20T22:56:14.130Z,29.00
2023-01-20T22:58:42.135Z,29.33
2023-01-20T23:01:13.370Z,28.88
2023-01-20T23:03:41.182Z,29.97
2023-01-20T23:06:10.217Z,28.70
2023-01-20T23:08:38.166Z,30.33
2023-01-20T23:11:08.944Z,28.90
2023-01-20T23:13:38.632Z,29.00
2023-01-20T23:16:09.994Z,29.37
2023-01-20T23:18:38.005Z,29.77
2023-01-20T23:21:06.298Z,27.67
2023-01-20T23:23:34.250Z,28.40
2023-01-20T23:26:02.963Z,30.23
2023-01-20T23:28:31.129Z,29.50
2023-01-20T23:31:04.824Z,30.48
2023-01-20T23:33:33.508Z,28.67
2023-01-20T23:36:06.097Z,28.58
2023-01-20T23:38:33.784Z,28.10
2023-01-20T23:41:02.316Z,27.40
2023-01-20T23:43:30.270Z,28.35
2023-01-20T23:45:59.196Z,29.13
2023-01-20T23:50:59.741Z,27.07
2023-01-20T23:53:29.209Z,27.47
2023-01-20T23:56:00.300Z,29.40
2023-01-20T23:58:28.016Z,29.73
